createdAt,value
2022-09-28T00:04:25.960Z,31.80
2022-09-28T00:09:29.090Z,32.00
2022-09-28T00:14:32.594Z,33.50
2022-09-28T00:19:35.743Z,34.10
2022-09-28T00:24:39.445Z,33.80
2022-09-28T00:29:42.599Z,34.20
2022-09-28T00:34:49.668Z,32.50
2022-09-28T00:39:52.832Z,35.60
2022-09-28T00:44:57.860Z,33.90
2022-09-28T00:50:29.441Z,26.60
2022-09-28T00:55:52.451Z,31.10
2022-09-28T01:00:59.662Z,31.90
2022-09-28T01:06:05.308Z,20.10
2022-09-28T01:11:09.022Z,22.50
2022-09-28T01:16:38.322Z,20.90
2022-09-28T01:21:59.780Z,14.50
2022-09-28T01:27:14.564Z,11.60
2022-09-28T01:32:43.938Z,10.90
2022-09-28T01:38:03.072Z,9.50
2022-09-28T01:43:11.925Z,9.70
2022-09-28T01:48:21.728Z,7.80
2022-09-28T01:53:37.601Z,7.90
2022-09-28T01:58:49.812Z,8.70
2022-09-28T02:04:16.591Z,8.70
2022-09-28T02:09:33.043Z,9.30
2022-09-28T02:14:41.043Z,11.30
2022-09-28T02:19:45.328Z,12.70
2022-09-28T02:24:59.546Z,8.80
2022-09-28T02:30:04.908Z,4.60
2022-09-28T02:35:13.474Z,3.40
2022-09-28T02:40:31.995Z,3.50
2022-09-28T02:45:56.487Z,3.40
2022-09-28T02:51:20.971Z,3.00
2022-09-28T02:56:39.700Z,3.40
2022-09-28T03:01:55.058Z,3.00
2022-09-28T03:07:16.752Z,4.90
2022-09-28T03:12:23.909Z,6.40
2022-09-28T03:17:27.152Z,3.70
2022-09-28T03:22:30.335Z,4.40
2022-09-28T03:27:33.800Z,4.90
2022-09-28T03:32:37.292Z,4.90
2022-09-28T03:37:40.358Z,3.40
2022-09-28T03:42:44.199Z,4.10
2022-09-28T03:47:48.838Z,5.00
2022-09-28T03:52:52.122Z,4.60
2022-09-28T03:57:56.436Z,5.60
2022-09-28T04:02:59.596Z,4.70
2022-09-28T04:08:02.787Z,5.10
2022-09-28T04:13:05.938Z,4.80
2022-09-28T04:18:13.815Z,5.90
2022-09-28T04:23:17.080Z,5.60
2022-09-28T04:28:38.938Z,5.80
2022-09-28T04:33:42.008Z,4.90
2022-09-28T04:38:53.635Z,5.80
2022-09-28T04:43:56.988Z,5.30
2022-09-28T04:49:00.336Z,6.60
2022-09-28T04:54:03.650Z,5.20
2022-09-28T04:59:06.870Z,4.90
2022-09-28T05:04:09.965Z,5.20
2022-09-28T05:09:13.218Z,5.60
2022-09-28T05:14:17.035Z,8.10
2022-09-28T05:19:20.159Z,6.20
2022-09-28T05:24:23.274Z,7.30
2022-09-28T05:29:29.031Z,7.40
2022-09-28T05:34:35.214Z,7.10
2022-09-28T05:39:38.341Z,8.60
2022-09-28T05:44:41.558Z,11.30
2022-09-28T05:49:44.849Z,10.70
2022-09-28T05:54:48.445Z,9.90
2022-09-28T05:59:51.584Z,10.00
2022-09-28T06:04:56.001Z,9.10
2022-09-28T06:10:00.293Z,10.70
2022-09-28T06:15:03.765Z,9.30
2022-09-28T06:20:07.497Z,9.30
2022-09-28T06:25:10.672Z,8.50
2022-09-28T06:30:13.907Z,8.10
2022-09-28T06:35:17.336Z,9.60
2022-09-28T06:40:21.557Z,9.00
2022-09-28T06:45:26.838Z,9.40
2022-09-28T06:50:33.407Z,8.50
2022-09-28T06:55:40.400Z,8.40
2022-09-28T07:00:44.559Z,11.60
2022-09-28T07:05:50.767Z,9.40
2022-09-28T07:10:56.428Z,12.60
2022-09-28T07:16:01.797Z,11.80
2022-09-28T07:21:09.844Z,12.20
2022-09-28T07:26:15.436Z,11.40
2022-09-28T07:31:19.287Z,12.90
2022-09-28T07:36:24.687Z,11.30
2022-09-28T07:41:34.062Z,11.50
2022-09-28T07:46:37.873Z,9.30
2022-09-28T07:51:43.808Z,15.70
2022-09-28T07:56:47.188Z,18.50
2022-09-28T08:01:50.312Z,22.50
2022-09-28T08:06:53.496Z,18.80
2022-09-28T08:11:58.104Z,17.70
2022-09-28T08:17:02.050Z,15.50
2022-09-28T08:22:05.859Z,16.90
2022-09-28T08:27:13.635Z,13.80
2022-09-28T08:32:18.637Z,13.50
2022-09-28T08:37:22.395Z,13.00
2022-09-28T08:42:28.467Z,13.80
2022-09-28T08:47:58.318Z,13.20
2022-09-28T08:53:12.861Z,13.90
2022-09-28T08:58:28.565Z,12.30
2022-09-28T09:03:39.757Z,11.40
2022-09-28T09:09:06.139Z,12.90
2022-09-28T09:14:54.138Z,14.00
2022-09-28T09:20:28.394Z,10.50
2022-09-28T09:25:43.277Z,10.70
2022-09-28T09:30:48.991Z,11.80
2022-09-28T09:36:42.686Z,12.10
2022-09-28T09:42:30.080Z,10.40
2022-09-28T09:47:38.528Z,10.10
2022-09-28T09:52:55.958Z,11.00
2022-09-28T09:58:13.403Z,8.40
2022-09-28T10:03:30.233Z,9.80
2022-09-28T10:08:41.147Z,8.80
2022-09-28T10:13:45.011Z,8.40
2022-09-28T10:18:50.171Z,9.00
2022-09-28T10:23:59.021Z,10.20
2022-09-28T10:29:13.586Z,10.00
2022-09-28T10:34:19.874Z,8.10
2022-09-28T10:39:30.204Z,7.90
2022-09-28T10:44:37.559Z,8.20
2022-09-28T10:49:47.300Z,7.20
2022-09-28T10:54:54.499Z,8.60
2022-09-28T10:59:57.746Z,16.90
2022-09-28T11:05:04.008Z,13.10
2022-09-28T11:10:22.985Z,9.90
2022-09-28T11:15:32.372Z,9.30
2022-09-28T11:20:36.528Z,12.00
2022-09-28T11:25:41.501Z,8.60
2022-09-28T11:30:53.779Z,10.60
2022-09-28T11:36:13.016Z,10.00
2022-09-28T11:41:41.314Z,17.10
2022-09-28T11:46:44.335Z,22.10
2022-09-28T11:51:50.199Z,16.40
2022-09-28T11:56:53.971Z,17.90
2022-09-28T12:02:01.248Z,12.60
2022-09-28T12:07:12.959Z,6.70
2022-09-28T12:12:24.840Z,8.50
2022-09-28T12:17:45.994Z,14.40
2022-09-28T12:23:04.270Z,6.40
2022-09-28T12:28:18.673Z,6.40
2022-09-28T12:33:21.947Z,7.10
2022-09-28T12:38:33.885Z,5.90
2022-09-28T12:44:14.706Z,6.40
2022-09-28T12:55:22.886Z,8.40
2022-09-28T13:00:37.946Z,8.60
2022-09-28T13:05:56.080Z,7.00
2022-09-28T13:11:16.327Z,7.70
2022-09-28T13:16:44.359Z,8.70
2022-09-28T13:22:09.556Z,6.40
2022-09-28T13:27:23.572Z,12.70
2022-09-28T13:32:31.692Z,9.00
2022-09-28T13:37:34.926Z,5.70
2022-09-28T13:42:53.244Z,5.10
2022-09-28T13:48:12.545Z,5.90
2022-09-28T13:53:37.103Z,5.20
2022-09-28T13:59:13.002Z,5.70
2022-09-28T14:04:22.409Z,5.40
2022-09-28T14:09:44.548Z,6.00
2022-09-28T14:14:53.042Z,8.20
2022-09-28T14:20:16.407Z,6.20
2022-09-28T14:25:24.393Z,8.40
2022-09-28T14:30:45.402Z,9.50
2022-09-28T14:35:59.227Z,13.70
2022-09-28T14:41:12.950Z,11.70
2022-09-28T14:46:17.442Z,11.60
2022-09-28T14:51:26.837Z,10.40
2022-09-28T14:56:33.976Z,9.70
2022-09-28T15:01:38.788Z,9.50
2022-09-28T15:06:47.875Z,15.60
2022-09-28T15:11:52.674Z,44.70
2022-09-28T15:17:02.307Z,24.90
2022-09-28T15:22:15.851Z,15.20
2022-09-28T15:27:19.346Z,13.30
2022-09-28T15:32:28.227Z,13.10
2022-09-28T15:37:39.717Z,11.10
2022-09-28T15:42:45.567Z,12.10
2022-09-28T15:47:48.977Z,9.30
2022-09-28T15:53:06.649Z,9.90
2022-09-28T15:58:12.736Z,35.90
2022-09-28T16:03:28.413Z,20.50
2022-09-28T16:08:44.551Z,10.50
2022-09-28T16:14:07.476Z,10.70
2022-09-28T16:19:24.728Z,10.80
2022-09-28T16:24:32.561Z,11.40
2022-09-28T16:29:43.043Z,32.00
2022-09-28T16:34:46.202Z,30.70
2022-09-28T16:39:49.335Z,29.00
2022-09-28T16:44:52.603Z,27.40
2022-09-28T16:49:55.746Z,32.70
2022-09-28T16:55:41.637Z,39.10
2022-09-28T17:00:43.674Z,39.90
2022-09-28T17:05:48.582Z,44.90
2022-09-28T17:11:15.513Z,41.40
2022-09-28T17:16:42.657Z,33.30
2022-09-28T17:21:47.289Z,25.30
2022-09-28T17:26:52.240Z,26.20
2022-09-28T17:31:55.507Z,31.40
2022-09-28T17:36:58.669Z,21.00
2022-09-28T17:42:01.849Z,20.80
2022-09-28T17:47:05.675Z,20.00
2022-09-28T17:52:09.971Z,20.10
2022-09-28T17:57:13.160Z,16.20
2022-09-28T18:02:17.113Z,14.70
2022-09-28T18:07:20.349Z,13.70
2022-09-28T18:12:25.383Z,16.10
2022-09-28T18:17:29.624Z,14.90
2022-09-28T18:22:32.747Z,16.90
2022-09-28T18:27:36.019Z,19.20
2022-09-28T18:32:39.153Z,16.70
2022-09-28T18:37:42.904Z,14.20
2022-09-28T18:42:46.168Z,16.80
2022-09-28T18:47:49.347Z,17.60
2022-09-28T18:52:52.532Z,15.80
2022-09-28T18:57:55.648Z,12.90
2022-09-28T19:02:58.837Z,14.60
2022-09-28T19:08:02.620Z,13.00
2022-09-28T19:13:06.576Z,13.00
2022-09-28T19:18:09.757Z,13.70
2022-09-28T19:23:13.004Z,13.40
2022-09-28T19:28:16.151Z,14.00
2022-09-28T19:33:19.442Z,14.70
2022-09-28T19:38:22.738Z,14.90
2022-09-28T19:43:27.433Z,18.00
2022-09-28T19:48:34.184Z,18.60
2022-09-28T19:53:37.339Z,20.80
2022-09-28T19:58:41.592Z,18.20
2022-09-28T20:03:44.812Z,15.30
2022-09-28T20:08:47.963Z,12.90
2022-09-28T20:13:53.045Z,12.60
2022-09-28T20:19:00.966Z,10.90
2022-09-28T20:24:05.280Z,9.80
2022-09-28T20:29:08.651Z,11.60
2022-09-28T20:34:12.469Z,9.20
2022-09-28T20:39:18.650Z,11.30
2022-09-28T20:44:23.264Z,9.20
2022-09-28T20:49:28.477Z,8.00
2022-09-28T20:54:31.978Z,6.20
2022-09-28T20:59:36.218Z,10.20
2022-09-28T21:04:41.458Z,9.70
2022-09-28T21:09:44.648Z,10.20
2022-09-28T21:14:47.821Z,11.10
2022-09-28T21:19:50.984Z,8.20
2022-09-28T21:24:54.255Z,8.60
2022-09-28T21:29:57.596Z,8.50
2022-09-28T21:35:00.770Z,10.20
2022-09-28T21:40:07.130Z,9.10
2022-09-28T21:45:12.313Z,10.10
2022-09-28T21:50:15.604Z,8.70
2022-09-28T21:55:21.081Z,8.90
2022-09-28T22:00:24.362Z,11.40
2022-09-28T22:05:28.401Z,13.10
2022-09-28T22:10:31.606Z,13.00
2022-09-28T22:15:35.976Z,13.30
2022-09-28T22:20:39.115Z,11.10
2022-09-28T22:25:42.304Z,14.70
2022-09-28T22:30:46.675Z,12.20
2022-09-28T22:35:51.812Z,11.30
2022-09-28T22:40:56.723Z,10.90
2022-09-28T22:46:15.057Z,10.00
2022-09-28T22:51:19.390Z,11.60
2022-09-28T22:56:22.861Z,11.00
2022-09-28T23:01:30.882Z,11.80
2022-09-28T23:06:34.135Z,9.80
2022-09-28T23:11:37.626Z,9.30
2022-09-28T23:16:40.809Z,7.40
2022-09-28T23:21:43.938Z,10.00
2022-09-28T23:26:47.026Z,8.20
2022-09-28T23:31:50.218Z,7.70
2022-09-28T23:36:53.490Z,10.20
2022-09-28T23:41:59.343Z,10.00
2022-09-28T23:47:02.724Z,11.10
2022-09-28T23:52:06.030Z,10.50
2022-09-28T23:57:09.531Z,11.50
